createdAt,value
2018-06-11T00:01:22.552Z,6.10
2018-06-11T00:03:51.433Z,6.10
2018-06-11T00:06:20.961Z,6.43
2018-06-11T00:08:50.501Z,7.33
2018-06-11T00:11:19.761Z,6.20
2018-06-11T00:13:48.561Z,7.03
2018-06-11T00:16:18.030Z,6.93
2018-06-11T00:18:47.811Z,6.90
2018-06-11T00:21:16.706Z,7.03
2018-06-11T00:23:45.547Z,9.13
2018-06-11T00:26:15.045Z,7.67
2018-06-11T00:28:43.982Z,7.43
2018-06-11T00:31:13.355Z,7.87
2018-06-11T00:33:42.995Z,7.83
2018-06-11T00:36:12.012Z,7.90
2018-06-11T00:38:41.257Z,8.83
2018-06-11T00:41:10.405Z,8.57
2018-06-11T00:43:40.857Z,8.70
2018-06-11T00:46:10.425Z,8.17
2018-06-11T00:48:40.355Z,8.60
2018-06-11T00:51:10.419Z,9.33
2018-06-11T00:53:39.525Z,8.87
2018-06-11T00:56:23.615Z,8.13
2018-06-11T00:58:54.121Z,8.60
2018-06-11T01:01:23.236Z,8.80
2018-06-11T01:03:52.139Z,8.53
2018-06-11T01:06:21.784Z,9.63
2018-06-11T01:08:51.360Z,8.53
2018-06-11T01:11:20.246Z,9.13
2018-06-11T01:13:50.191Z,9.40
2018-06-11T01:16:19.628Z,8.83
2018-06-11T01:18:49.274Z,8.37
2018-06-11T01:21:18.079Z,8.73
2018-06-11T01:23:47.769Z,9.07
2018-06-11T01:26:17.531Z,9.30
2018-06-11T01:28:46.507Z,8.50
2018-06-11T01:31:16.665Z,9.50
2018-06-11T01:33:45.988Z,9.60
2018-06-11T01:36:15.160Z,9.73
2018-06-11T01:38:44.057Z,9.50
2018-06-11T01:41:13.006Z,9.60
2018-06-11T01:43:44.091Z,9.30
2018-06-11T01:46:13.805Z,10.20
2018-06-11T01:48:43.299Z,10.33
2018-06-11T01:51:12.511Z,11.67
2018-06-11T01:53:41.492Z,10.03
2018-06-11T01:56:11.644Z,10.37
2018-06-11T01:58:41.223Z,9.43
2018-06-11T02:01:10.937Z,10.40
2018-06-11T02:03:40.028Z,10.60
2018-06-11T02:06:09.795Z,10.37
2018-06-11T02:08:40.070Z,11.03
2018-06-11T02:11:09.702Z,11.20
2018-06-11T02:13:38.561Z,10.70
2018-06-11T02:16:08.564Z,10.53
2018-06-11T02:18:38.474Z,10.60
2018-06-11T02:21:07.385Z,10.20
2018-06-11T02:23:37.054Z,10.53
2018-06-11T02:26:05.886Z,11.20
2018-06-11T02:28:34.796Z,10.83
2018-06-11T02:31:04.361Z,9.80
2018-06-11T02:33:33.212Z,10.70
2018-06-11T02:36:02.060Z,10.63
2018-06-11T02:38:30.954Z,10.67
2018-06-11T02:40:59.854Z,11.33
2018-06-11T02:43:29.719Z,10.97
2018-06-11T02:45:59.483Z,11.53
2018-06-11T02:48:29.014Z,11.03
2018-06-11T02:50:58.021Z,11.30
2018-06-11T02:53:26.841Z,11.00
2018-06-11T02:55:55.901Z,11.17
2018-06-11T02:58:24.894Z,10.87
2018-06-11T03:00:54.909Z,11.43
2018-06-11T03:03:23.830Z,10.50
2018-06-11T03:05:53.611Z,11.87
2018-06-11T03:08:23.220Z,11.77
2018-06-11T03:10:52.035Z,11.90
2018-06-11T03:13:20.935Z,11.73
2018-06-11T03:15:50.566Z,12.17
2018-06-11T03:18:20.232Z,11.20
2018-06-11T03:20:49.273Z,11.53
2018-06-11T03:23:18.167Z,11.70
2018-06-11T03:25:47.412Z,10.77
2018-06-11T03:28:16.250Z,12.57
2018-06-11T03:30:45.894Z,12.43
2018-06-11T03:33:14.678Z,13.47
2018-06-11T03:35:43.531Z,13.53
2018-06-11T03:38:12.402Z,13.13
2018-06-11T03:40:41.400Z,14.80
2018-06-11T03:43:11.231Z,15.27
2018-06-11T03:45:40.283Z,14.23
2018-06-11T03:48:10.142Z,14.83
2018-06-11T03:50:39.311Z,15.33
2018-06-11T03:53:08.314Z,15.97
2018-06-11T03:55:37.316Z,15.73
2018-06-11T03:58:06.235Z,16.57
2018-06-11T04:00:35.918Z,16.47
2018-06-11T04:03:04.849Z,17.80
2018-06-11T04:05:34.383Z,16.40
2018-06-11T04:08:03.767Z,16.73
2018-06-11T04:10:32.582Z,16.57
2018-06-11T04:13:01.682Z,17.43
2018-06-11T04:15:31.463Z,16.50
2018-06-11T04:18:01.027Z,17.03
2018-06-11T04:20:29.787Z,17.03
2018-06-11T04:22:58.638Z,14.83
2018-06-11T04:25:27.416Z,15.27
2018-06-11T04:27:56.239Z,13.90
2018-06-11T04:30:25.879Z,10.83
2018-06-11T04:32:54.718Z,8.67
2018-06-11T04:35:23.616Z,9.97
2018-06-11T04:37:52.637Z,8.37
2018-06-11T04:40:22.656Z,7.23
2018-06-11T04:42:52.150Z,6.20
2018-06-11T04:45:21.036Z,8.33
2018-06-11T04:47:49.805Z,6.13
2018-06-11T04:50:18.574Z,6.27
2018-06-11T04:52:47.311Z,5.60
2018-06-11T04:55:16.333Z,5.60
2018-06-11T04:57:45.108Z,4.87
2018-06-11T05:00:15.506Z,6.23
2018-06-11T05:02:44.295Z,4.97
2018-06-11T05:05:14.326Z,4.90
2018-06-11T05:07:43.784Z,4.67
2018-06-11T05:10:12.576Z,4.60
2018-06-11T05:12:41.487Z,4.77
2018-06-11T05:15:11.815Z,4.63
2018-06-11T05:17:41.831Z,3.87
2018-06-11T05:20:10.820Z,4.27
2018-06-11T05:22:39.792Z,4.13
2018-06-11T05:25:09.642Z,4.30
2018-06-11T05:27:38.510Z,3.90
2018-06-11T05:30:08.027Z,4.40
2018-06-11T05:32:36.813Z,4.27
2018-06-11T05:35:05.654Z,4.00
2018-06-11T05:37:35.193Z,4.27
2018-06-11T05:40:04.087Z,4.60
2018-06-11T05:42:33.861Z,4.50
2018-06-11T05:45:02.707Z,5.23
2018-06-11T05:47:32.311Z,5.40
2018-06-11T05:50:01.148Z,5.00
2018-06-11T05:52:29.946Z,5.27
2018-06-11T05:54:58.805Z,5.30
2018-06-11T05:57:27.649Z,5.57
2018-06-11T05:59:57.423Z,4.80
2018-06-11T06:02:26.199Z,5.33
2018-06-11T06:04:56.247Z,4.57
2018-06-11T06:07:25.706Z,5.20
2018-06-11T06:09:54.582Z,4.57
2018-06-11T06:12:23.470Z,5.20
2018-06-11T06:14:53.078Z,4.27
2018-06-11T06:17:22.497Z,5.27
2018-06-11T06:19:51.335Z,4.27
2018-06-11T06:22:20.112Z,4.90
2018-06-11T06:24:48.887Z,3.70
2018-06-11T06:27:17.660Z,3.77
2018-06-11T06:29:47.486Z,3.63
2018-06-11T06:32:17.462Z,5.00
2018-06-11T06:34:46.368Z,3.90
2018-06-11T06:37:15.894Z,4.40
2018-06-11T06:39:44.651Z,3.87
2018-06-11T06:42:14.298Z,4.43
2018-06-11T06:44:44.016Z,3.73
2018-06-11T06:47:12.786Z,3.60
2018-06-11T06:49:41.559Z,4.00
2018-06-11T06:52:10.768Z,3.87
2018-06-11T06:54:39.840Z,3.73
2018-06-11T06:57:09.404Z,3.90
2018-06-11T06:59:39.369Z,3.67
2018-06-11T07:02:08.451Z,3.77
2018-06-11T07:04:37.462Z,3.80
2018-06-11T07:07:06.974Z,3.77
2018-06-11T07:09:35.785Z,4.33
2018-06-11T07:12:04.800Z,4.00
2018-06-11T07:14:33.810Z,4.10
2018-06-11T07:17:03.084Z,4.00
2018-06-11T07:19:31.839Z,4.93
2018-06-11T07:22:00.790Z,4.00
2018-06-11T07:24:29.603Z,3.70
2018-06-11T07:26:58.487Z,3.23
2018-06-11T07:29:27.623Z,3.83
2018-06-11T07:31:57.119Z,3.03
2018-06-11T07:34:26.652Z,4.13
2018-06-11T07:36:55.552Z,3.10
2018-06-11T07:39:24.395Z,3.77
2018-06-11T07:41:53.235Z,2.80
2018-06-11T07:44:22.726Z,3.40
2018-06-11T07:46:51.495Z,2.87
2018-06-11T07:49:20.277Z,3.87
2018-06-11T07:51:49.090Z,3.00
2018-06-11T07:54:17.862Z,3.50
2018-06-11T07:56:46.888Z,2.83
2018-06-11T07:59:17.221Z,3.77
2018-06-11T08:01:46.025Z,2.80
2018-06-11T08:04:14.798Z,2.83
2018-06-11T08:06:44.270Z,2.97
2018-06-11T08:09:13.415Z,3.50
2018-06-11T08:11:42.212Z,2.70
2018-06-11T08:14:11.206Z,3.30
2018-06-11T08:16:41.106Z,3.23
2018-06-11T08:19:11.068Z,3.33
2018-06-11T08:21:39.926Z,3.00
2018-06-11T08:24:08.726Z,3.03
2018-06-11T08:26:37.592Z,3.30
2018-06-11T08:29:06.905Z,3.23
2018-06-11T08:31:36.314Z,3.23
2018-06-11T08:34:05.252Z,3.33
2018-06-11T08:36:34.026Z,3.60
2018-06-11T08:39:03.223Z,3.07
2018-06-11T08:41:31.998Z,3.90
2018-06-11T08:44:01.374Z,3.57
2018-06-11T08:46:30.133Z,4.33
2018-06-11T08:48:58.937Z,3.43
2018-06-11T08:51:27.719Z,3.63
2018-06-11T08:53:56.478Z,3.40
2018-06-11T08:56:25.614Z,3.80
2018-06-11T08:58:55.542Z,3.70
2018-06-11T09:01:24.538Z,4.60
2018-06-11T09:03:53.391Z,3.70
2018-06-11T09:06:23.005Z,3.83
2018-06-11T09:08:53.003Z,3.17
2018-06-11T09:11:22.656Z,3.90
2018-06-11T09:13:51.410Z,3.23
2018-06-11T09:16:21.142Z,3.57
2018-06-11T09:18:50.590Z,2.97
2018-06-11T09:21:19.338Z,3.70
2018-06-11T09:23:48.093Z,3.40
2018-06-11T09:26:16.926Z,3.33
2018-06-11T09:28:46.511Z,3.37
2018-06-11T09:31:16.689Z,3.50
2018-06-11T09:33:45.465Z,3.30
2018-06-11T09:36:14.287Z,3.47
2018-06-11T09:38:43.099Z,3.10
2018-06-11T09:41:12.042Z,3.43
2018-06-11T09:43:42.063Z,3.30
2018-06-11T09:46:10.999Z,3.60
2018-06-11T09:48:39.993Z,3.17
2018-06-11T09:51:08.931Z,2.63
2018-06-11T09:53:38.037Z,4.27
2018-06-11T09:56:07.154Z,3.07
2018-06-11T09:58:35.987Z,3.13
2018-06-11T10:01:05.775Z,3.07
2018-06-11T10:03:34.790Z,3.27
2018-06-11T10:06:04.601Z,3.07
2018-06-11T10:08:34.275Z,3.60
2018-06-11T10:11:03.028Z,2.93
2018-06-11T10:13:31.884Z,3.10
2018-06-11T10:16:01.374Z,3.33
2018-06-11T10:18:31.385Z,3.47
2018-06-11T10:21:00.186Z,3.23
2018-06-11T10:23:28.985Z,3.27
2018-06-11T10:25:58.767Z,3.03
2018-06-11T10:28:27.575Z,2.87
2018-06-11T10:30:56.972Z,3.20
2018-06-11T10:33:25.823Z,3.00
2018-06-11T10:35:54.834Z,3.50
2018-06-11T10:38:23.773Z,3.00
2018-06-11T10:40:52.561Z,3.00
2018-06-11T10:43:21.913Z,3.30
2018-06-11T10:45:50.801Z,3.27
2018-06-11T10:48:19.578Z,3.37
2018-06-11T10:50:48.383Z,3.10
2018-06-11T10:53:17.154Z,2.60
2018-06-11T10:55:46.159Z,4.00
2018-06-11T10:58:15.186Z,3.00
2018-06-11T11:00:44.866Z,3.50
2018-06-11T11:03:13.653Z,3.30
2018-06-11T11:05:43.587Z,3.10
2018-06-11T11:08:13.059Z,3.90
2018-06-11T11:10:42.004Z,4.37
2018-06-11T11:13:10.911Z,3.10
2018-06-11T11:15:40.720Z,3.53
2018-06-11T11:18:10.460Z,3.23
2018-06-11T11:20:39.451Z,4.13
2018-06-11T11:23:09.264Z,3.00
2018-06-11T11:25:38.517Z,4.17
2018-06-11T11:28:07.322Z,3.03
2018-06-11T11:30:36.847Z,3.40
2018-06-11T11:33:05.709Z,2.80
2018-06-11T11:35:34.515Z,3.10
2018-06-11T11:38:03.355Z,3.13
2018-06-11T11:40:32.451Z,3.83
2018-06-11T11:43:01.931Z,3.37
2018-06-11T11:45:30.802Z,3.07
2018-06-11T11:47:59.615Z,3.07
2018-06-11T11:50:28.423Z,3.00
2018-06-11T11:52:57.239Z,2.93
2018-06-11T11:55:26.456Z,2.53
2018-06-11T11:57:55.472Z,2.73
2018-06-11T12:00:25.227Z,2.70
2018-06-11T12:02:54.209Z,2.80
2018-06-11T12:05:23.815Z,2.73
2018-06-11T12:07:53.576Z,3.03
2018-06-11T12:10:22.533Z,2.33
2018-06-11T12:12:51.327Z,2.40
2018-06-11T12:15:21.239Z,2.73
2018-06-11T12:17:50.593Z,2.80
2018-06-11T12:20:19.407Z,2.80
2018-06-11T12:22:48.951Z,2.50
2018-06-11T12:25:17.750Z,2.53
2018-06-11T12:27:46.597Z,2.80
2018-06-11T12:30:16.290Z,3.17
2018-06-11T12:32:45.080Z,2.67
2018-06-11T12:35:13.838Z,2.80
2018-06-11T12:37:42.669Z,2.73
2018-06-11T12:40:11.789Z,2.97
2018-06-11T12:42:41.694Z,2.60
2018-06-11T12:45:10.982Z,2.53
2018-06-11T12:47:40.083Z,2.50
2018-06-11T12:50:09.162Z,3.00
2018-06-11T12:52:39.074Z,2.27
2018-06-11T12:55:08.176Z,2.33
2018-06-11T12:57:37.031Z,2.60
2018-06-11T13:00:07.022Z,3.00
2018-06-11T13:02:35.790Z,2.10
2018-06-11T13:05:05.807Z,2.93
2018-06-11T13:07:35.336Z,2.63
2018-06-11T13:10:04.496Z,2.90
2018-06-11T13:12:33.338Z,2.60
2018-06-11T13:15:03.119Z,3.27
2018-06-11T13:17:32.571Z,2.80
2018-06-11T13:20:02.585Z,3.27
2018-06-11T13:22:31.373Z,2.70
2018-06-11T13:25:00.154Z,3.00
2018-06-11T13:27:28.955Z,2.50
2018-06-11T13:29:59.423Z,3.77
2018-06-11T13:32:28.226Z,2.60
2018-06-11T13:34:57.037Z,3.07
2018-06-11T13:37:25.854Z,2.70
2018-06-11T13:39:54.779Z,2.50
2018-06-11T13:42:24.353Z,1.97
2018-06-11T13:44:54.176Z,2.67
2018-06-11T13:47:23.275Z,2.20
2018-06-11T13:49:52.433Z,2.63
2018-06-11T13:52:21.261Z,2.33
2018-06-11T13:54:50.170Z,2.80
2018-06-11T13:57:19.115Z,2.93
2018-06-11T13:59:49.078Z,2.70
2018-06-11T14:02:17.900Z,2.83
2018-06-11T14:04:46.659Z,3.23
2018-06-11T14:07:16.192Z,3.60
2018-06-11T14:09:45.052Z,3.30
2018-06-11T14:12:13.906Z,3.83
2018-06-11T14:14:42.721Z,2.60
2018-06-11T14:17:12.394Z,2.90
2018-06-11T14:19:41.269Z,2.60
2018-06-11T14:22:10.296Z,3.30
2018-06-11T14:24:39.465Z,3.10
2018-06-11T14:27:08.362Z,3.30
2018-06-11T14:29:37.389Z,2.83
2018-06-11T14:32:07.494Z,3.60
2018-06-11T14:34:36.267Z,2.83
2018-06-11T14:37:05.052Z,3.10
2018-06-11T14:39:33.858Z,2.83
2018-06-11T14:42:03.772Z,2.87
2018-06-11T14:44:33.306Z,3.20
2018-06-11T14:47:02.437Z,3.60
2018-06-11T14:49:31.211Z,3.13
2018-06-11T14:52:00.082Z,3.27
2018-06-11T14:54:28.859Z,3.53
2018-06-11T14:56:57.775Z,3.47
2018-06-11T14:59:27.377Z,3.10
2018-06-11T15:01:56.171Z,2.60
2018-06-11T15:04:25.055Z,2.70
2018-06-11T15:06:54.638Z,2.73
2018-06-11T15:09:23.503Z,2.53
2018-06-11T15:11:52.747Z,2.87
2018-06-11T15:14:22.227Z,2.57
2018-06-11T15:16:52.891Z,2.77
2018-06-11T15:19:21.655Z,3.20
2018-06-11T15:21:50.459Z,2.73
2018-06-11T15:24:19.282Z,3.00
2018-06-11T15:26:48.022Z,2.80
2018-06-11T15:29:16.971Z,2.90
2018-06-11T15:31:46.550Z,3.47
2018-06-11T15:34:15.292Z,3.27
2018-06-11T15:36:44.415Z,3.07
2018-06-11T15:39:13.219Z,3.27
2018-06-11T15:41:42.154Z,2.67
2018-06-11T15:44:11.700Z,3.07
2018-06-11T15:46:41.259Z,2.87
2018-06-11T15:49:10.380Z,3.17
2018-06-11T15:51:39.490Z,3.33
2018-06-11T15:54:08.435Z,3.70
2018-06-11T15:56:37.894Z,4.00
2018-06-11T15:59:07.262Z,3.53
2018-06-11T16:01:36.078Z,2.93
2018-06-11T16:04:04.951Z,3.70
2018-06-11T16:06:34.590Z,3.20
2018-06-11T16:09:03.581Z,3.70
2018-06-11T16:11:33.108Z,3.17
2018-06-11T16:14:01.890Z,3.90
2018-06-11T16:16:31.609Z,2.90
2018-06-11T16:19:00.950Z,4.17
2018-06-11T16:21:29.766Z,3.10
2018-06-11T16:23:58.973Z,3.33
2018-06-11T16:26:28.424Z,3.10
2018-06-11T16:28:57.205Z,3.60
2018-06-11T16:31:26.808Z,3.00
2018-06-11T16:33:55.741Z,3.13
2018-06-11T16:36:24.670Z,3.10
2018-06-11T16:38:53.987Z,3.23
2018-06-11T16:41:22.935Z,2.33
2018-06-11T16:43:52.403Z,3.27
2018-06-11T16:46:21.255Z,3.23
2018-06-11T16:48:51.069Z,3.23
2018-06-11T16:51:19.868Z,2.80
2018-06-11T16:53:48.681Z,2.87
2018-06-11T16:56:17.566Z,3.20
2018-06-11T16:58:47.577Z,2.90
2018-06-11T17:01:16.323Z,2.87
2018-06-11T17:03:45.897Z,3.17
2018-06-11T17:06:15.283Z,3.10
2018-06-11T17:08:44.839Z,2.73
2018-06-11T17:11:13.612Z,3.17
2018-06-11T17:13:42.506Z,2.30
2018-06-11T17:16:12.155Z,3.40
2018-06-11T17:18:42.896Z,2.10
2018-06-11T17:21:11.825Z,3.17
2018-06-11T17:23:40.742Z,1.83
2018-06-11T17:26:10.388Z,2.60
2018-06-11T17:28:39.322Z,2.10
2018-06-11T17:31:09.347Z,2.57
2018-06-11T17:33:38.311Z,1.50
2018-06-11T17:36:08.341Z,1.57
2018-06-11T17:38:37.218Z,2.30
2018-06-11T17:41:06.050Z,1.40
2018-06-11T17:43:35.571Z,1.93
2018-06-11T17:46:04.354Z,1.03
2018-06-11T17:48:33.193Z,1.50
2018-06-11T17:51:02.045Z,1.30
2018-06-11T17:53:31.227Z,1.80
2018-06-11T17:56:00.122Z,1.30
2018-06-11T17:58:29.223Z,1.73
2018-06-11T18:00:58.925Z,1.10
2018-06-11T18:03:28.556Z,1.40
2018-06-11T18:05:58.122Z,1.10
2018-06-11T18:08:28.407Z,1.80
2018-06-11T18:10:57.400Z,2.07
2018-06-11T18:13:27.127Z,1.67
2018-06-11T18:15:56.790Z,1.13
2018-06-11T18:18:29.214Z,1.97
2018-06-11T18:20:58.320Z,1.90
2018-06-11T18:23:27.136Z,1.87
2018-06-11T18:25:57.903Z,1.07
2018-06-11T18:28:26.713Z,1.60
2018-06-11T18:30:56.716Z,1.70
2018-06-11T18:33:25.583Z,1.30
2018-06-11T18:35:55.445Z,1.40
2018-06-11T18:38:24.393Z,1.90
2018-06-11T18:40:53.884Z,1.60
2018-06-11T18:43:23.733Z,2.03
2018-06-11T18:45:52.520Z,1.63
2018-06-11T18:48:21.303Z,1.97
2018-06-11T18:50:50.839Z,1.70
2018-06-11T18:53:50.300Z,1.97
2018-06-11T18:56:20.204Z,1.97
2018-06-11T18:58:50.035Z,1.87
2018-06-11T19:01:19.687Z,2.60
2018-06-11T19:03:48.890Z,1.87
2018-06-11T19:06:18.475Z,1.83
2018-06-11T19:08:47.829Z,1.90
2018-06-11T19:11:16.909Z,1.73
2018-06-11T19:13:45.655Z,2.17
2018-06-11T19:16:15.153Z,1.50
2018-06-11T19:18:44.601Z,2.43
2018-06-11T19:21:13.846Z,1.70
2018-06-11T19:23:42.680Z,2.27
2018-06-11T19:26:11.736Z,2.30
2018-06-11T19:28:40.656Z,2.30
2018-06-11T19:31:11.392Z,2.17
2018-06-11T19:34:43.532Z,2.20
2018-06-11T19:37:12.476Z,1.77
2018-06-11T19:39:41.490Z,3.40
2018-06-11T19:42:11.003Z,1.93
2018-06-11T19:44:40.020Z,2.10
2018-06-11T19:47:09.039Z,2.10
2018-06-11T19:49:38.486Z,2.53
2018-06-11T19:52:07.254Z,2.10
2018-06-11T19:54:36.160Z,2.60
2018-06-11T19:57:04.982Z,2.20
2018-06-11T19:59:34.643Z,2.50
2018-06-11T20:02:04.306Z,2.40
2018-06-11T20:04:34.028Z,3.33
2018-06-11T20:07:03.437Z,2.33
2018-06-11T20:09:32.334Z,3.33
2018-06-11T20:12:01.191Z,3.00
2018-06-11T20:14:30.026Z,3.27
2018-06-11T20:16:59.769Z,3.27
2018-06-11T20:19:28.601Z,3.33
2018-06-11T20:21:57.386Z,2.93
2018-06-11T20:24:26.978Z,3.50
2018-06-11T20:26:55.868Z,2.70
2018-06-11T20:29:24.938Z,3.50
2018-06-11T20:31:54.576Z,2.70
2018-06-11T20:34:24.624Z,3.60
2018-06-11T20:36:53.613Z,3.23
2018-06-11T20:39:22.552Z,3.50
2018-06-11T20:41:53.528Z,3.20
2018-06-11T20:44:22.610Z,4.10
2018-06-11T20:46:51.555Z,2.80
2018-06-11T20:49:20.396Z,3.67
2018-06-11T20:51:49.255Z,2.50
2018-06-11T20:54:18.209Z,3.10
2018-06-11T20:56:48.045Z,2.80
2018-06-11T20:59:17.543Z,3.70
2018-06-11T21:01:47.230Z,2.97
2018-06-11T21:04:16.760Z,3.00
2018-06-11T21:06:46.498Z,2.77
2018-06-11T21:09:15.367Z,3.30
2018-06-11T21:11:44.235Z,2.90
2018-06-11T21:14:15.015Z,3.83
2018-06-11T21:16:44.781Z,2.93
2018-06-11T21:19:13.615Z,2.93
2018-06-11T21:21:42.479Z,3.57
2018-06-11T21:24:11.692Z,3.67
2018-06-11T21:26:40.900Z,3.27
2018-06-11T21:29:12.105Z,3.37
2018-06-11T21:31:42.222Z,4.53
2018-06-11T21:34:11.441Z,3.03
2018-06-11T21:36:41.742Z,3.30
2018-06-11T21:39:11.005Z,3.70
2018-06-11T21:41:40.855Z,4.10
2018-06-11T21:44:10.507Z,3.80
2018-06-11T21:46:39.653Z,3.90
2018-06-11T21:49:09.062Z,3.60
2018-06-11T21:51:38.626Z,3.77
2018-06-11T21:54:07.691Z,3.80
2018-06-11T21:56:36.905Z,4.00
2018-06-11T21:59:06.627Z,3.93
2018-06-11T22:01:36.038Z,3.90
2018-06-11T22:04:05.644Z,4.40
2018-06-11T22:06:35.346Z,4.20
2018-06-11T22:09:06.633Z,3.87
2018-06-11T22:11:35.570Z,4.03
2018-06-11T22:14:04.500Z,4.07
2018-06-11T22:16:34.578Z,3.40
2018-06-11T22:19:04.207Z,3.20
2018-06-11T22:21:33.661Z,3.33
2018-06-11T22:24:02.503Z,3.70
2018-06-11T22:26:31.574Z,3.77
2018-06-11T22:29:00.476Z,3.80
2018-06-11T22:31:30.042Z,3.13
2018-06-11T22:33:58.905Z,3.70
2018-06-11T22:36:28.694Z,3.53
2018-06-11T22:38:57.693Z,3.53
2018-06-11T22:41:27.383Z,3.80
2018-06-11T22:43:56.431Z,4.17
2018-06-11T22:46:25.528Z,4.10
2018-06-11T22:48:54.523Z,4.23
2018-06-11T22:51:23.445Z,4.07
2018-06-11T22:53:52.463Z,4.90
2018-06-11T22:56:22.141Z,3.73
2018-06-11T22:58:52.081Z,4.60
2018-06-11T23:01:20.954Z,4.23
2018-06-11T23:03:51.010Z,4.77
2018-06-11T23:06:20.504Z,4.50
2018-06-11T23:08:49.930Z,6.03
2018-06-11T23:11:18.836Z,4.70
2018-06-11T23:13:47.766Z,5.37
2018-06-11T23:16:17.612Z,4.57
2018-06-11T23:18:47.436Z,5.00
2018-06-11T23:21:16.251Z,4.90
2018-06-11T23:23:45.165Z,5.50
2018-06-11T23:26:14.095Z,6.20
2018-06-11T23:28:42.987Z,5.23
2018-06-11T23:31:13.100Z,5.57
2018-06-11T23:33:42.203Z,5.17
2018-06-11T23:36:11.889Z,5.47
2018-06-11T23:38:41.256Z,5.13
2018-06-11T23:41:11.004Z,5.27
2018-06-11T23:43:40.072Z,4.60
2018-06-11T23:46:09.372Z,5.37
2018-06-11T23:48:38.508Z,4.83
2018-06-11T23:51:07.480Z,5.60
2018-06-11T23:53:37.393Z,5.37
2018-06-11T23:56:06.362Z,5.33
2018-06-11T23:58:35.246Z,5.23
